createdAt,value
2023-02-15T00:01:28.812Z,26.13
2023-02-15T00:04:44.784Z,26.67
2023-02-15T00:07:47.409Z,26.47
2023-02-15T00:10:48.689Z,27.43
2023-02-15T00:13:51.233Z,26.40
2023-02-15T00:16:54.648Z,28.00
2023-02-15T00:19:55.964Z,27.98
2023-02-15T00:22:58.670Z,27.60
2023-02-15T00:26:07.359Z,27.10
2023-02-15T00:29:11.415Z,27.15
2023-02-15T00:32:13.363Z,25.25
2023-02-15T00:35:15.968Z,26.90
2023-02-15T00:38:18.509Z,27.93
2023-02-15T00:41:19.795Z,23.57
2023-02-15T00:44:22.312Z,27.33
2023-02-15T00:47:26.732Z,26.17
2023-02-15T00:50:27.985Z,25.58
2023-02-15T00:53:31.858Z,26.30
2023-02-15T00:56:34.376Z,27.80
2023-02-15T00:59:35.629Z,28.45
2023-02-15T01:02:38.782Z,28.40
2023-02-15T01:05:40.670Z,26.00
2023-02-15T01:08:43.821Z,24.67
2023-02-15T01:11:46.326Z,23.40
2023-02-15T01:14:47.634Z,25.25
2023-02-15T01:17:54.072Z,26.67
2023-02-15T01:20:55.353Z,28.10
2023-02-15T01:23:57.910Z,23.80
2023-02-15T01:26:59.247Z,25.60
2023-02-15T01:30:01.769Z,25.55
2023-02-15T01:33:05.301Z,25.02
2023-02-15T01:36:07.118Z,23.77
2023-02-15T01:42:31.905Z,25.03
2023-02-15T01:45:33.414Z,27.95
2023-02-15T01:48:41.357Z,26.38
2023-02-15T01:51:45.886Z,26.85
2023-02-15T01:54:49.856Z,26.03
2023-02-15T01:57:51.984Z,25.93
2023-02-15T02:00:55.797Z,26.00
2023-02-15T02:04:03.235Z,22.90
2023-02-15T02:07:07.971Z,25.38
2023-02-15T02:10:12.290Z,26.33
2023-02-15T02:13:14.915Z,24.73
2023-02-15T02:16:22.396Z,24.80
2023-02-15T02:20:00.324Z,25.45
2023-02-15T02:23:29.283Z,26.77
2023-02-15T02:27:08.765Z,25.33
2023-02-15T02:30:47.765Z,25.27
2023-02-15T02:33:58.075Z,24.88
2023-02-15T02:37:09.877Z,26.02
2023-02-15T02:40:18.438Z,26.27
2023-02-15T02:43:27.839Z,24.77
2023-02-15T02:46:33.312Z,23.67
2023-02-15T02:49:38.523Z,24.25
2023-02-15T02:52:42.327Z,24.80
2023-02-15T02:55:48.611Z,25.37
2023-02-15T02:58:54.683Z,26.77
2023-02-15T03:02:01.656Z,23.92
2023-02-15T03:05:10.743Z,23.23
2023-02-15T03:08:14.200Z,26.92
2023-02-15T03:14:40.454Z,26.15
2023-02-15T03:17:45.464Z,24.27
2023-02-15T03:27:37.309Z,22.53
2023-02-15T03:34:07.400Z,28.73
2023-02-15T03:37:17.528Z,22.98
2023-02-15T03:40:40.824Z,25.45
2023-02-15T03:43:50.478Z,23.17
2023-02-15T03:46:57.525Z,25.35
2023-02-15T03:50:04.113Z,26.20
2023-02-15T03:53:10.393Z,26.27
2023-02-15T04:03:23.100Z,25.58
2023-02-15T04:10:05.276Z,27.85
2023-02-15T04:13:06.547Z,28.85
2023-02-15T04:19:48.089Z,26.50
2023-02-15T04:23:08.719Z,28.05
2023-02-15T04:26:11.891Z,28.65
2023-02-15T04:32:38.962Z,29.53
2023-02-15T04:35:41.486Z,27.63
2023-02-15T04:38:44.065Z,29.02
2023-02-15T04:45:07.869Z,27.17
2023-02-15T04:48:10.433Z,29.87
2023-02-15T04:51:11.945Z,34.00
2023-02-15T04:54:14.683Z,32.00
2023-02-15T04:57:16.784Z,28.75
2023-02-15T05:00:20.042Z,32.30
2023-02-15T05:03:21.344Z,28.73
2023-02-15T05:06:23.880Z,30.65
2023-02-15T05:09:25.288Z,32.95
2023-02-15T05:12:28.473Z,30.58
2023-02-15T05:15:31.028Z,29.60
2023-02-15T05:18:34.461Z,33.07
2023-02-15T05:21:35.748Z,29.85
2023-02-15T05:28:21.260Z,32.28
2023-02-15T05:31:22.990Z,33.33
2023-02-15T05:34:25.784Z,31.67
2023-02-15T05:37:27.076Z,35.92
2023-02-15T05:40:29.748Z,34.22
2023-02-15T05:43:32.458Z,30.00
2023-02-15T05:46:34.989Z,35.40
2023-02-15T05:49:36.347Z,30.47
2023-02-15T05:52:39.032Z,33.10
2023-02-15T05:55:40.941Z,30.00
2023-02-15T05:59:04.153Z,32.45
2023-02-15T06:02:06.661Z,31.70
2023-02-15T06:05:09.940Z,31.70
2023-02-15T06:08:11.186Z,34.95
2023-02-15T06:11:13.887Z,35.38
2023-02-15T06:14:15.931Z,35.05
2023-02-15T06:17:18.741Z,32.75
2023-02-15T06:20:20.023Z,34.20
2023-02-15T06:23:22.560Z,33.95
2023-02-15T06:26:23.935Z,38.28
2023-02-15T06:29:27.173Z,37.63
2023-02-15T06:32:28.483Z,37.33
2023-02-15T06:35:31.016Z,31.80
2023-02-15T06:38:32.334Z,36.70
2023-02-15T06:41:34.935Z,41.10
2023-02-15T06:44:36.868Z,38.70
2023-02-15T06:47:39.402Z,40.15
2023-02-15T06:50:40.851Z,37.37
2023-02-15T06:53:44.278Z,36.05
2023-02-15T06:56:46.820Z,37.92
2023-02-15T06:59:50.079Z,37.95
2023-02-15T07:02:55.768Z,36.35
2023-02-15T07:05:59.005Z,41.20
2023-02-15T07:09:00.370Z,40.33
2023-02-15T07:12:19.652Z,40.22
2023-02-15T07:15:22.462Z,48.25
2023-02-15T07:18:24.992Z,45.08
2023-02-15T07:21:26.473Z,46.33
2023-02-15T07:24:29.100Z,45.00
2023-02-15T07:27:32.063Z,53.10
2023-02-15T07:30:35.466Z,44.05
2023-02-15T07:33:36.740Z,49.00
2023-02-15T07:36:39.295Z,49.87
2023-02-15T07:39:40.547Z,51.88
2023-02-15T07:42:43.159Z,58.97
2023-02-15T07:45:45.127Z,53.70
2023-02-15T07:48:47.612Z,49.83
2023-02-15T07:51:48.873Z,54.67
2023-02-15T07:54:51.385Z,50.85
2023-02-15T07:57:54.092Z,52.07
2023-02-15T08:00:58.050Z,58.10
2023-02-15T08:03:59.786Z,60.70
2023-02-15T08:07:02.345Z,52.50
2023-02-15T08:10:03.972Z,54.00
2023-02-15T08:13:06.480Z,55.50
2023-02-15T08:16:08.408Z,54.20
2023-02-15T08:19:13.152Z,52.90
2023-02-15T08:25:36.302Z,63.88
2023-02-15T08:28:39.870Z,55.73
2023-02-15T08:31:43.789Z,59.20
2023-02-15T08:34:45.203Z,50.38
2023-02-15T08:37:47.740Z,57.22
2023-02-15T08:40:48.999Z,59.80
2023-02-15T08:43:55.094Z,55.90
2023-02-15T08:47:02.793Z,54.70
2023-02-15T08:50:06.342Z,56.35
2023-02-15T08:53:07.623Z,57.03
2023-02-15T08:59:31.343Z,55.23
2023-02-15T09:02:33.269Z,48.50
2023-02-15T09:05:35.967Z,46.70
2023-02-15T09:08:37.731Z,47.40
2023-02-15T09:11:42.181Z,43.72
2023-02-15T09:14:44.958Z,52.87
2023-02-15T09:17:46.917Z,46.63
2023-02-15T09:20:50.507Z,50.35
2023-02-15T09:23:56.879Z,47.22
2023-02-15T09:26:59.355Z,42.78
2023-02-15T09:30:00.756Z,46.63
2023-02-15T09:33:04.096Z,48.10
2023-02-15T09:36:06.473Z,46.20
2023-02-15T09:39:11.122Z,44.70
2023-02-15T09:42:40.107Z,43.35
2023-02-15T09:45:56.046Z,42.23
2023-02-15T09:49:06.653Z,43.00
2023-02-15T09:56:08.513Z,41.30
2023-02-15T09:59:17.277Z,39.92
2023-02-15T10:02:38.260Z,39.40
2023-02-15T10:05:55.188Z,43.40
2023-02-15T10:09:25.320Z,38.17
2023-02-15T10:12:48.130Z,40.85
2023-02-15T10:16:08.226Z,38.45
2023-02-15T10:19:16.903Z,42.07
2023-02-15T10:22:34.323Z,39.53
2023-02-15T10:25:45.882Z,39.25
2023-02-15T10:28:51.344Z,38.53
2023-02-15T10:32:00.346Z,38.47
2023-02-15T10:35:07.566Z,37.70
2023-02-15T10:38:22.668Z,37.57
2023-02-15T10:41:39.422Z,40.20
2023-02-15T10:44:53.136Z,39.15
2023-02-15T10:48:17.950Z,40.83
2023-02-15T10:51:33.904Z,42.40
2023-02-15T10:58:12.968Z,36.90
2023-02-15T11:01:23.559Z,34.88
2023-02-15T11:04:41.464Z,33.47
2023-02-15T11:07:47.733Z,34.17
2023-02-15T11:10:53.345Z,37.53
2023-02-15T11:14:06.005Z,31.95
2023-02-15T11:17:12.695Z,34.05
2023-02-15T11:20:20.776Z,31.65
2023-02-15T11:23:24.453Z,37.30
2023-02-15T11:26:33.456Z,35.57
2023-02-15T11:29:40.041Z,28.40
2023-02-15T11:32:46.431Z,32.33
2023-02-15T11:35:53.364Z,30.05
2023-02-15T11:39:04.078Z,30.87
2023-02-15T11:42:13.757Z,27.40
2023-02-15T11:45:24.858Z,32.63
2023-02-15T11:48:26.330Z,29.52
2023-02-15T11:54:54.246Z,24.63
2023-02-15T11:58:03.133Z,23.10
2023-02-15T12:04:40.897Z,25.13
2023-02-15T12:07:47.472Z,27.55
2023-02-15T12:11:00.747Z,26.83
2023-02-15T12:14:05.804Z,21.57
2023-02-15T12:17:14.232Z,22.00
2023-02-15T12:20:28.641Z,28.20
2023-02-15T12:23:31.663Z,26.73
2023-02-15T12:26:35.504Z,26.20
2023-02-15T12:33:16.339Z,26.10
2023-02-15T12:36:21.607Z,27.25
2023-02-15T12:42:47.371Z,24.20
2023-02-15T12:45:50.686Z,24.40
2023-02-15T12:49:20.414Z,24.88
2023-02-15T12:52:26.864Z,23.10
2023-02-15T12:55:31.380Z,22.52
2023-02-15T12:58:37.787Z,22.27
2023-02-15T13:01:41.782Z,25.83
2023-02-15T13:04:49.233Z,26.42
2023-02-15T13:07:52.710Z,26.00
2023-02-15T13:10:57.783Z,24.03
2023-02-15T13:14:00.946Z,24.50
2023-02-15T13:17:08.717Z,22.48
2023-02-15T13:20:19.090Z,25.63
2023-02-15T13:23:29.204Z,21.73
2023-02-15T13:26:32.004Z,22.97
2023-02-15T13:29:38.577Z,24.93
2023-02-15T13:32:43.948Z,24.90
2023-02-15T13:35:51.129Z,23.83
2023-02-15T13:39:05.183Z,28.08
2023-02-15T13:42:21.319Z,23.98
2023-02-15T13:45:38.851Z,27.53
2023-02-15T13:48:51.290Z,22.42
2023-02-15T13:55:37.114Z,23.95
2023-02-15T13:59:12.574Z,24.48
2023-02-15T14:02:46.351Z,22.93
2023-02-15T14:06:28.940Z,24.00
2023-02-15T14:09:44.823Z,22.38
2023-02-15T14:13:03.157Z,20.65
2023-02-15T14:19:42.349Z,22.00
2023-02-15T14:22:52.936Z,23.33
2023-02-15T14:25:57.696Z,25.13
2023-02-15T14:29:17.766Z,23.58
2023-02-15T14:35:48.800Z,21.97
2023-02-15T14:38:59.419Z,23.92
2023-02-15T14:42:06.417Z,22.23
2023-02-15T14:45:19.875Z,18.98
2023-02-15T14:48:26.130Z,20.52
2023-02-15T14:52:00.130Z,24.83
2023-02-15T15:01:56.952Z,20.88
2023-02-15T15:05:07.649Z,23.58
2023-02-15T15:08:27.294Z,19.87
2023-02-15T15:11:48.079Z,19.85
2023-02-15T15:14:50.223Z,20.73
2023-02-15T15:21:54.104Z,20.92
2023-02-15T15:24:58.308Z,20.43
2023-02-15T15:28:00.393Z,21.80
2023-02-15T15:31:11.044Z,21.58
2023-02-15T15:34:29.831Z,20.60
2023-02-15T15:38:00.356Z,20.80
2023-02-15T15:45:32.857Z,21.73
2023-02-15T15:52:02.785Z,21.17
2023-02-15T15:55:14.492Z,20.20
2023-02-15T15:58:19.911Z,19.77
2023-02-15T16:01:27.868Z,19.92
2023-02-15T16:04:32.373Z,22.10
2023-02-15T16:10:54.732Z,20.80
2023-02-15T16:17:22.707Z,21.15
2023-02-15T16:24:10.313Z,18.88
2023-02-15T16:27:25.405Z,20.10
2023-02-15T16:33:55.622Z,17.90
2023-02-15T16:37:15.492Z,18.30
2023-02-15T16:44:08.825Z,18.17
2023-02-15T16:47:17.030Z,19.17
2023-02-15T16:50:22.801Z,18.85
2023-02-15T16:53:27.943Z,20.70
2023-02-15T16:56:32.220Z,18.33
2023-02-15T16:59:37.883Z,18.92
2023-02-15T17:02:56.093Z,15.90
2023-02-15T17:06:01.501Z,18.13
2023-02-15T17:09:04.798Z,16.93
2023-02-15T17:12:12.037Z,20.40
2023-02-15T17:15:27.072Z,19.13
2023-02-15T17:18:32.242Z,21.27
2023-02-15T17:21:40.644Z,19.90
2023-02-15T17:24:45.303Z,20.10
2023-02-15T17:27:52.456Z,19.25
2023-02-15T17:30:57.013Z,20.05
2023-02-15T17:33:58.840Z,24.10
2023-02-15T17:37:03.767Z,24.48
2023-02-15T17:40:17.322Z,22.00
2023-02-15T17:43:19.815Z,22.77
2023-02-15T17:46:22.288Z,22.95
2023-02-15T17:49:34.172Z,24.33
2023-02-15T17:52:36.730Z,21.42
2023-02-15T17:55:43.593Z,26.30
2023-02-15T17:58:44.982Z,23.20
2023-02-15T18:02:08.362Z,27.20
2023-02-15T18:05:31.819Z,23.45
2023-02-15T18:08:53.150Z,23.30
2023-02-15T18:11:54.612Z,22.07
2023-02-15T18:14:58.191Z,25.10
2023-02-15T18:17:59.543Z,23.67
2023-02-15T18:21:02.516Z,22.73
2023-02-15T18:24:04.677Z,25.83
2023-02-15T18:27:07.397Z,25.13
2023-02-15T18:30:14.286Z,27.30
2023-02-15T18:36:51.265Z,30.10
2023-02-15T18:39:55.019Z,29.77
2023-02-15T18:42:56.699Z,31.67
2023-02-15T18:45:58.050Z,31.45
2023-02-15T18:49:00.601Z,35.28
2023-02-15T18:52:02.869Z,34.22
2023-02-15T18:55:17.083Z,37.28
2023-02-15T18:58:22.287Z,40.17
2023-02-15T19:01:23.696Z,44.90
2023-02-15T19:04:26.237Z,43.85
2023-02-15T19:07:37.522Z,41.08
2023-02-15T19:10:39.464Z,42.25
2023-02-15T19:17:01.762Z,45.13
2023-02-15T19:23:25.923Z,43.40
2023-02-15T19:26:44.602Z,40.95
2023-02-15T19:29:48.734Z,41.47
2023-02-15T19:32:51.386Z,39.70
2023-02-15T19:35:56.447Z,41.13
2023-02-15T19:38:59.002Z,40.75
2023-02-15T19:42:00.958Z,42.65
2023-02-15T19:48:23.005Z,40.35
2023-02-15T19:51:25.994Z,36.78
2023-02-15T19:54:30.024Z,39.45
2023-02-15T19:57:33.195Z,39.17
2023-02-15T20:00:34.535Z,37.50
2023-02-15T20:03:37.378Z,41.63
2023-02-15T20:06:38.862Z,42.63
2023-02-15T20:09:43.949Z,37.90
2023-02-15T20:12:47.549Z,40.55
2023-02-15T20:19:12.228Z,37.28
2023-02-15T20:22:23.015Z,37.40
2023-02-15T20:25:26.606Z,39.05
2023-02-15T20:28:31.719Z,39.35
2023-02-15T20:31:33.189Z,37.87
2023-02-15T20:34:35.780Z,36.92
2023-02-15T20:37:37.247Z,36.72
2023-02-15T20:41:00.638Z,38.70
2023-02-15T20:44:15.810Z,36.42
2023-02-15T20:47:18.969Z,38.77
2023-02-15T20:50:22.592Z,37.50
2023-02-15T20:53:25.705Z,41.55
2023-02-15T20:56:27.123Z,35.22
2023-02-15T21:09:38.018Z,37.90
2023-02-15T21:12:40.783Z,40.15
2023-02-15T21:15:42.917Z,40.50
2023-02-15T21:18:45.761Z,44.30
2023-02-15T21:21:49.962Z,39.35
2023-02-15T21:24:54.181Z,46.25
2023-02-15T21:27:56.998Z,39.30
2023-02-15T21:30:59.137Z,40.20
2023-02-15T21:34:02.204Z,43.30
2023-02-15T21:37:04.282Z,40.38
2023-02-15T21:40:15.660Z,44.85
2023-02-15T21:43:38.022Z,49.58
2023-02-15T21:50:41.085Z,43.30
2023-02-15T21:53:45.214Z,43.92
2023-02-15T21:56:49.267Z,43.17
2023-02-15T21:59:51.882Z,34.25
2023-02-15T22:02:55.662Z,38.38
2023-02-15T22:05:58.276Z,34.80
2023-02-15T22:09:00.807Z,33.38
2023-02-15T22:12:02.138Z,32.53
2023-02-15T22:15:05.676Z,34.45
2023-02-15T22:18:19.574Z,36.13
2023-02-15T22:21:22.768Z,34.67
2023-02-15T22:24:24.082Z,31.85
2023-02-15T22:27:28.893Z,33.05
2023-02-15T22:30:32.874Z,32.35
2023-02-15T22:33:36.137Z,31.65
2023-02-15T22:36:38.702Z,33.20
2023-02-15T22:39:41.675Z,31.77
2023-02-15T22:42:46.464Z,32.25
2023-02-15T22:45:49.307Z,32.80
2023-02-15T22:48:51.659Z,29.63
2023-02-15T22:51:54.254Z,30.80
2023-02-15T22:54:55.571Z,30.75
2023-02-15T22:57:58.863Z,34.00
2023-02-15T23:01:01.124Z,31.65
2023-02-15T23:04:04.907Z,31.13
2023-02-15T23:07:12.808Z,29.37
2023-02-15T23:10:21.886Z,30.58
2023-02-15T23:13:26.315Z,32.88
2023-02-15T23:16:28.928Z,29.83
2023-02-15T23:19:31.428Z,29.35
2023-02-15T23:25:54.165Z,29.52
2023-02-15T23:28:58.764Z,30.55
2023-02-15T23:32:00.266Z,32.42
2023-02-15T23:38:29.956Z,29.73
2023-02-15T23:41:31.075Z,28.40
2023-02-15T23:44:34.338Z,32.75
2023-02-15T23:47:57.780Z,31.98
2023-02-15T23:51:00.385Z,32.08
2023-02-15T23:54:02.924Z,31.77
2023-02-15T23:57:04.570Z,28.70
